Time;durP1;ratioP1;P1;durP2;ratioP2;P2;SDS_P1;SDS_P2;PMS_P1;PMS_P2;Temp;Humidity;BMP_temperature;BMP_pressure;BME280_temperature;BME280_humidity;BME280_pressure;Samples;Min_cycle;Max_cycle;Signal;HPM_P1;HPM_P2
2022/03/22 00:00:45;;;;;;;16.42;8.70;;;5.60;70.10;;;;;;5022171;28;20585;-72
2022/03/22 00:03:11;;;;;;;13.85;9.10;;;5.40;70.50;;;;;;5020763;28;20597;-72
2022/03/22 00:05:42;;;;;;;14.50;8.60;;;5.20;71.00;;;;;;5020802;28;20026;-72
2022/03/22 00:08:09;;;;;;;17.05;8.90;;;5.10;71.50;;;;;;5025372;28;20535;-72
2022/03/22 00:10:36;;;;;;;18.13;9.68;;;5.10;71.80;;;;;;5029408;28;20029;-72
2022/03/22 00:13:04;;;;;;;15.82;10.27;;;5.30;71.00;;;;;;5027360;28;20464;-72
2022/03/22 00:15:30;;;;;;;15.02;9.05;;;5.50;71.50;;;;;;5028504;28;20033;-72
2022/03/22 00:17:55;;;;;;;17.48;9.80;;;5.30;71.10;;;;;;5030078;28;20040;-72
2022/03/22 00:20:23;;;;;;;24.00;8.52;;;5.20;71.30;;;;;;5026950;28;20404;-72
2022/03/22 00:22:49;;;;;;;16.02;8.15;;;5.00;71.30;;;;;;5031504;28;20026;-72
2022/03/22 00:25:16;;;;;;;15.38;9.93;;;4.90;71.60;;;;;;5027579;28;20040;-72
2022/03/22 00:27:55;;;;;;;15.68;9.30;;;5.00;71.50;;;;;;5029320;28;20446;-72
2022/03/22 00:30:25;;;;;;;20.73;8.82;;;4.90;71.30;;;;;;5024643;28;20048;-72
2022/03/22 00:32:53;;;;;;;14.52;7.82;;;5.00;71.10;;;;;;5033190;28;20131;-72
2022/03/22 00:35:23;;;;;;;13.77;7.97;;;5.10;71.10;;;;;;5031022;28;20422;-72
2022/03/22 00:37:53;;;;;;;15.32;8.15;;;5.00;71.20;;;;;;5025933;28;20595;-72
2022/03/22 00:40:20;;;;;;;14.25;8.80;;;4.80;71.50;;;;;;5026041;28;20030;-72
2022/03/22 00:42:47;;;;;;;15.05;8.38;;;4.80;71.40;;;;;;5025713;28;20072;-72
2022/03/22 00:45:15;;;;;;;15.07;8.43;;;5.00;70.90;;;;;;5026944;28;20034;-72
2022/03/22 00:47:43;;;;;;;16.63;9.38;;;5.10;71.20;;;;;;5028190;28;20037;-72
2022/03/22 00:50:09;;;;;;;12.38;8.20;;;5.10;71.10;;;;;;5030342;28;20083;-72
2022/03/22 00:52:35;;;;;;;15.93;8.70;;;5.20;70.60;;;;;;5025755;28;20120;-72
2022/03/22 00:55:04;;;;;;;12.73;7.68;;;5.30;70.80;;;;;;5031402;28;20037;-72
2022/03/22 00:57:29;;;;;;;14.07;8.35;;;5.30;70.30;;;;;;5019822;28;20041;-72
2022/03/22 01:00:01;;;;;;;12.43;7.72;;;5.10;70.60;;;;;;5022857;28;20033;-72
2022/03/22 01:02:27;;;;;;;17.98;9.57;;;5.10;70.30;;;;;;5026228;28;20053;-72
2022/03/22 01:04:53;;;;;;;14.10;8.50;;;5.10;70.20;;;;;;5026608;28;20037;-72
2022/03/22 01:07:19;;;;;;;13.52;8.32;;;5.10;70.30;;;;;;5032010;28;20029;-72
2022/03/22 01:09:45;;;;;;;15.75;8.57;;;5.00;70.40;;;;;;5028707;28;20045;-72
2022/03/22 01:12:10;;;;;;;14.88;8.40;;;4.90;70.80;;;;;;5031405;28;20028;-72
2022/03/22 01:14:36;;;;;;;14.60;7.78;;;5.00;70.80;;;;;;5027571;28;20033;-72
2022/03/22 01:17:02;;;;;;;16.05;8.38;;;4.80;70.90;;;;;;5030300;28;20118;-72
2022/03/22 01:19:28;;;;;;;15.40;8.68;;;4.80;70.80;;;;;;5028546;28;20029;-72
2022/03/22 01:21:55;;;;;;;15.30;9.10;;;4.60;71.20;;;;;;5030865;28;20033;-72
2022/03/22 01:24:20;;;;;;;14.10;7.85;;;4.70;70.90;;;;;;5027486;28;20116;-72
2022/03/22 01:26:46;;;;;;;14.13;7.75;;;4.60;71.20;;;;;;5025311;28;20128;-72
2022/03/22 01:29:12;;;;;;;17.48;7.80;;;4.70;70.70;;;;;;5029887;28;20029;-72
2022/03/22 01:31:37;;;;;;;14.75;8.02;;;4.70;70.50;;;;;;5030092;28;20026;-72
2022/03/22 01:34:03;;;;;;;15.27;7.53;;;4.60;71.00;;;;;;5029210;28;20041;-72
2022/03/22 01:36:31;;;;;;;14.13;7.38;;;4.60;70.80;;;;;;5025214;28;20037;-72
2022/03/22 01:38:57;;;;;;;13.98;7.20;;;4.60;70.90;;;;;;5031666;28;20041;-72
2022/03/22 01:41:24;;;;;;;13.65;7.45;;;4.60;70.50;;;;;;5027685;28;20025;-72
2022/03/22 01:43:50;;;;;;;16.67;8.30;;;4.70;70.50;;;;;;5026276;28;20026;-72
2022/03/22 01:46:20;;;;;;;13.80;8.18;;;4.80;70.20;;;;;;5030008;28;20321;-72
2022/03/22 01:48:47;;;;;;;13.13;7.90;;;5.00;70.20;;;;;;5029471;28;20069;-72
2022/03/22 01:51:13;;;;;;;13.13;7.15;;;4.90;69.50;;;;;;5030832;28;20025;-72
2022/03/22 01:53:40;;;;;;;14.77;6.95;;;4.70;70.00;;;;;;5029199;28;20029;-72
2022/03/22 01:56:06;;;;;;;13.27;6.85;;;4.70;70.10;;;;;;5027422;28;20469;-72
2022/03/22 01:58:32;;;;;;;12.30;6.70;;;4.80;69.80;;;;;;5031477;28;20036;-72
2022/03/22 02:06:31;;;;;;;13.95;6.93;;;4.40;70.10;;;;;;5023553;28;20041;-72
2022/03/22 02:08:57;;;;;;;12.88;7.38;;;4.20;71.00;;;;;;5027625;28;20562;-72
2022/03/22 02:11:23;;;;;;;15.50;7.53;;;4.10;71.10;;;;;;5024647;28;20105;-72
2022/03/22 02:13:48;;;;;;;14.05;7.72;;;4.20;70.90;;;;;;5031238;28;20033;-72
2022/03/22 02:16:14;;;;;;;11.82;7.05;;;4.20;70.60;;;;;;5028633;28;20045;-72
2022/03/22 02:18:40;;;;;;;20.35;8.52;;;4.20;70.60;;;;;;5028732;28;20369;-72
2022/03/22 02:21:06;;;;;;;11.85;7.03;;;4.10;70.80;;;;;;5029072;28;20038;-72
2022/03/22 02:23:50;;;;;;;12.60;7.70;;;4.20;70.90;;;;;;5028230;28;20033;-72
2022/03/22 02:26:17;;;;;;;14.30;7.47;;;4.10;70.80;;;;;;5027575;28;20491;-72
2022/03/22 02:28:43;;;;;;;15.82;9.25;;;4.20;70.90;;;;;;5017433;28;20030;-72
2022/03/22 02:31:09;;;;;;;19.55;10.05;;;4.20;71.40;;;;;;5029302;28;20090;-72
2022/03/22 02:33:39;;;;;;;15.75;8.85;;;4.10;72.90;;;;;;5025596;28;20075;-72
2022/03/22 02:36:05;;;;;;;19.00;7.93;;;4.70;69.40;;;;;;5028396;28;20046;-72
2022/03/22 02:38:31;;;;;;;14.35;7.63;;;4.90;69.10;;;;;;5025226;28;20021;-72
2022/03/22 02:40:57;;;;;;;14.55;8.50;;;4.90;69.50;;;;;;5030539;28;20115;-72
2022/03/22 02:43:23;;;;;;;13.85;7.10;;;4.80;69.60;;;;;;5025830;28;20112;-72
2022/03/22 02:45:49;;;;;;;15.27;7.93;;;4.40;69.70;;;;;;5026232;28;20129;-72
2022/03/22 02:48:15;;;;;;;15.32;9.15;;;4.10;71.80;;;;;;5028903;28;20111;-72
2022/03/22 02:50:40;;;;;;;15.85;7.38;;;4.40;72.40;;;;;;5029312;28;20033;-72
2022/03/22 02:53:06;;;;;;;13.27;7.40;;;4.50;72.00;;;;;;5027855;28;20029;-72
2022/03/22 02:55:32;;;;;;;16.65;8.65;;;4.50;70.40;;;;;;5030355;28;20037;-72
2022/03/22 02:57:58;;;;;;;12.05;6.90;;;4.70;69.80;;;;;;5027771;28;20113;-72
2022/03/22 03:00:24;;;;;;;10.55;7.43;;;4.30;70.20;;;;;;5031353;28;20040;-72
2022/03/22 03:02:51;;;;;;;12.77;6.80;;;4.30;69.70;;;;;;5022252;28;20045;-72
2022/03/22 03:05:18;;;;;;;15.80;8.23;;;4.30;69.20;;;;;;5028315;28;20033;-72
2022/03/22 03:07:44;;;;;;;16.38;8.88;;;4.20;71.10;;;;;;5025030;28;20026;-72
2022/03/22 03:10:11;;;;;;;12.90;7.15;;;4.10;72.40;;;;;;5021814;28;20083;-72
2022/03/22 03:12:37;;;;;;;20.65;7.13;;;4.20;69.60;;;;;;5022921;28;20037;-72
2022/03/22 03:15:05;;;;;;;13.15;7.20;;;4.10;69.60;;;;;;5028948;28;20559;-72
2022/03/22 03:17:31;;;;;;;12.52;6.13;;;4.20;69.00;;;;;;5027496;28;20033;-72
2022/03/22 03:19:57;;;;;;;13.57;8.10;;;4.20;69.10;;;;;;5029366;28;20078;-72
2022/03/22 03:22:23;;;;;;;12.68;6.70;;;4.10;69.50;;;;;;5028508;28;20037;-72
2022/03/22 03:24:49;;;;;;;14.55;6.18;;;4.10;69.70;;;;;;5029971;28;20384;-72
2022/03/22 03:27:15;;;;;;;11.93;6.30;;;4.10;69.30;;;;;;5026305;28;20170;-72
2022/03/22 03:29:41;;;;;;;12.00;6.50;;;4.00;69.20;;;;;;5029350;28;20037;-72
2022/03/22 03:32:07;;;;;;;13.75;6.57;;;4.00;69.80;;;;;;5027584;28;20038;-72
2022/03/22 03:34:32;;;;;;;12.40;5.93;;;4.00;69.20;;;;;;5028830;28;20029;-72
2022/03/22 03:36:58;;;;;;;9.48;5.90;;;4.10;68.90;;;;;;5028402;28;20402;-72
2022/03/22 03:39:24;;;;;;;11.00;6.50;;;4.10;68.60;;;;;;5029489;28;20041;-72
2022/03/22 03:41:59;;;;;;;12.93;7.22;;;4.10;68.40;;;;;;5024916;28;20025;-72
2022/03/22 03:47:13;;;;;;;11.10;6.70;;;4.10;68.80;;;;;;5021279;28;20036;-72
2022/03/22 03:49:49;;;;;;;9.73;5.85;;;4.00;69.80;;;;;;5025660;28;20032;-72
2022/03/22 03:52:20;;;;;;;14.20;6.68;;;4.10;69.20;;;;;;5023940;28;20033;-72
2022/03/22 03:54:46;;;;;;;10.55;6.03;;;3.90;69.20;;;;;;5029517;28;20483;-72
2022/03/22 03:57:13;;;;;;;14.68;6.45;;;4.10;68.70;;;;;;5029419;28;20140;-72
2022/03/22 03:59:39;;;;;;;9.35;5.68;;;4.00;69.10;;;;;;5029266;28;20032;-72
2022/03/22 04:02:06;;;;;;;13.23;6.80;;;4.30;68.20;;;;;;5029306;28;20147;-71
2022/03/22 04:04:35;;;;;;;12.25;6.60;;;4.20;70.30;;;;;;5018901;28;20033;-71
2022/03/22 04:07:05;;;;;;;14.98;6.38;;;4.00;70.40;;;;;;5020503;28;20103;-71
2022/03/22 04:09:31;;;;;;;13.30;6.45;;;3.90;70.40;;;;;;5012816;28;20061;-70
2022/03/22 04:11:57;;;;;;;16.98;6.93;;;4.00;70.00;;;;;;5024199;28;20390;-70
2022/03/22 04:14:23;;;;;;;11.93;6.20;;;3.70;70.20;;;;;;5022137;28;20035;-70
2022/03/22 04:16:50;;;;;;;10.27;6.22;;;3.80;70.10;;;;;;5016766;28;20049;-71
2022/03/22 04:19:16;;;;;;;11.43;5.95;;;3.70;70.60;;;;;;5012508;28;20037;-70
2022/03/22 04:21:42;;;;;;;12.15;7.20;;;3.50;70.50;;;;;;5019200;28;20414;-70
2022/03/22 04:24:11;;;;;;;12.82;7.10;;;3.40;70.40;;;;;;5025438;28;20064;-71
2022/03/22 04:26:42;;;;;;;11.38;6.90;;;3.40;70.60;;;;;;5014299;28;20029;-70
2022/03/22 04:34:39;;;;;;;12.00;6.13;;;3.70;70.90;;;;;;5022614;28;20091;-70
2022/03/22 04:37:06;;;;;;;11.10;6.40;;;3.40;70.60;;;;;;5013562;28;20124;-70
2022/03/22 04:39:33;;;;;;;13.85;7.03;;;3.40;71.30;;;;;;5021339;28;20088;-71
2022/03/22 04:41:59;;;;;;;12.90;6.90;;;3.30;70.90;;;;;;5018632;28;20041;-71
2022/03/22 04:44:27;;;;;;;12.05;7.32;;;3.50;71.10;;;;;;5020222;28;20034;-70
2022/03/22 04:46:53;;;;;;;14.35;7.80;;;3.40;71.30;;;;;;5021459;28;20101;-70
2022/03/22 04:49:19;;;;;;;11.68;6.43;;;3.10;72.20;;;;;;5014275;28;20037;-70
2022/03/22 04:57:15;;;;;;;11.80;6.57;;;3.00;72.30;;;;;;5014562;28;20052;-71
2022/03/22 04:59:42;;;;;;;12.77;6.57;;;3.10;72.10;;;;;;5015039;28;20030;-70
2022/03/22 05:02:08;;;;;;;10.32;6.35;;;3.00;72.80;;;;;;5009108;28;21836;-71
2022/03/22 05:04:34;;;;;;;14.55;7.57;;;3.00;72.50;;;;;;5019045;28;20047;-70
2022/03/22 05:07:00;;;;;;;12.20;7.30;;;3.10;72.80;;;;;;5022431;28;20492;-71
2022/03/22 05:09:28;;;;;;;18.27;6.53;;;3.20;72.70;;;;;;5019647;28;20038;-71
2022/03/22 05:11:54;;;;;;;15.32;7.82;;;3.20;72.10;;;;;;5009707;28;20037;-71
2022/03/22 05:14:20;;;;;;;12.25;6.70;;;3.10;72.00;;;;;;5024106;28;20179;-70
2022/03/22 05:16:46;;;;;;;12.27;6.65;;;3.40;71.30;;;;;;5019550;28;20063;-71
2022/03/22 05:19:14;;;;;;;12.80;6.80;;;3.00;72.90;;;;;;5022180;28;20034;-70
2022/03/22 05:21:41;;;;;;;17.20;7.45;;;3.20;72.40;;;;;;5016219;28;20361;-70
2022/03/22 05:24:07;;;;;;;14.82;7.63;;;3.40;72.60;;;;;;5021158;28;20033;-71
2022/03/22 05:26:34;;;;;;;12.15;7.65;;;3.30;72.30;;;;;;5011932;28;20060;-71
2022/03/22 05:29:01;;;;;;;10.73;6.40;;;3.40;72.40;;;;;;5019850;28;20430;-70
2022/03/22 05:31:26;;;;;;;12.50;7.30;;;3.30;71.90;;;;;;5016570;28;20037;-71
2022/03/22 05:33:52;;;;;;;15.35;7.85;;;3.10;72.70;;;;;;5009313;28;20040;-70
2022/03/22 05:36:18;;;;;;;13.07;7.15;;;3.40;72.50;;;;;;5005144;28;20411;-71
2022/03/22 05:38:44;;;;;;;13.65;7.70;;;3.30;72.60;;;;;;5020967;28;20030;-70
2022/03/22 05:41:10;;;;;;;12.20;7.07;;;3.20;73.00;;;;;;5012173;28;20083;-71
2022/03/22 05:43:36;;;;;;;11.77;7.32;;;3.10;72.90;;;;;;5011148;28;20297;-70
2022/03/22 05:46:03;;;;;;;14.27;7.72;;;3.00;73.00;;;;;;5008098;28;20420;-71
2022/03/22 05:48:29;;;;;;;15.80;7.63;;;3.30;71.90;;;;;;5008699;28;20021;-71
2022/03/22 05:50:55;;;;;;;14.57;7.82;;;3.50;72.00;;;;;;5006733;28;20084;-70
2022/03/22 05:53:21;;;;;;;12.50;7.22;;;3.30;73.50;;;;;;5015670;28;20025;-71
2022/03/22 05:55:47;;;;;;;14.75;9.00;;;3.30;74.00;;;;;;5020630;28;20512;-71
2022/03/22 05:58:13;;;;;;;16.30;9.70;;;3.20;74.20;;;;;;5024464;28;20036;-70
2022/03/22 06:00:39;;;;;;;16.80;9.98;;;3.20;75.30;;;;;;5021259;28;20056;-71
2022/03/22 06:03:05;;;;;;;16.10;9.05;;;3.10;76.50;;;;;;5010710;28;20041;-70
2022/03/22 06:05:31;;;;;;;13.32;7.50;;;3.00;76.30;;;;;;5017958;28;20356;-71
2022/03/22 06:07:58;;;;;;;16.25;7.82;;;3.30;73.20;;;;;;5016615;28;20065;-71
2022/03/22 06:10:24;;;;;;;15.20;7.88;;;3.70;71.90;;;;;;5035027;28;20048;-70
2022/03/22 06:12:55;;;;;;;14.10;7.32;;;3.80;72.30;;;;;;5021572;28;20114;-71
2022/03/22 06:15:24;;;;;;;15.45;7.18;;;3.80;71.90;;;;;;5021765;28;20131;-70
2022/03/22 06:17:51;;;;;;;12.68;7.13;;;3.80;72.00;;;;;;5023214;28;20120;-71
2022/03/22 06:20:19;;;;;;;12.90;7.68;;;3.60;73.60;;;;;;5011446;28;20030;-71
2022/03/22 06:22:46;;;;;;;16.15;9.13;;;3.30;75.20;;;;;;5013157;28;20036;-71
2022/03/22 06:25:13;;;;;;;19.40;9.15;;;3.20;76.90;;;;;;5015247;28;20034;-70
2022/03/22 06:27:40;;;;;;;19.58;9.68;;;3.10;77.40;;;;;;5017464;28;20124;-70
2022/03/22 06:30:07;;;;;;;17.67;10.02;;;3.10;77.80;;;;;;5005246;28;20037;-72
2022/03/22 06:32:50;;;;;;;13.77;8.13;;;3.20;77.50;;;;;;5021531;28;20044;-72
2022/03/22 06:35:18;;;;;;;14.15;9.15;;;3.20;76.50;;;;;;5017786;28;20080;-72
2022/03/22 06:37:44;;;;;;;13.85;8.20;;;3.20;76.30;;;;;;5024933;28;20509;-71
2022/03/22 06:40:12;;;;;;;13.43;8.30;;;3.20;76.60;;;;;;5023613;28;20025;-70
2022/03/22 06:42:38;;;;;;;15.50;7.50;;;3.10;75.60;;;;;;5020671;28;20097;-70
2022/03/22 06:45:05;;;;;;;13.82;7.10;;;3.30;75.10;;;;;;5021743;28;20025;-70
2022/03/22 06:47:32;;;;;;;15.80;7.55;;;3.30;74.90;;;;;;5020487;28;20741;-70
2022/03/22 06:49:59;;;;;;;17.55;7.78;;;3.40;75.20;;;;;;5019529;28;20721;-70
2022/03/22 06:52:25;;;;;;;13.95;7.75;;;3.40;76.50;;;;;;5019981;28;20125;-70
2022/03/22 06:54:51;;;;;;;19.42;9.05;;;3.40;76.30;;;;;;5023082;28;20689;-70
2022/03/22 06:57:16;;;;;;;15.90;8.93;;;3.40;76.30;;;;;;5020804;28;20092;-70
2022/03/22 06:59:42;;;;;;;14.88;8.63;;;3.40;76.70;;;;;;5019240;28;20116;-70
2022/03/22 07:02:08;;;;;;;13.57;7.88;;;3.30;76.40;;;;;;5016772;28;20044;-70
2022/03/22 07:04:34;;;;;;;16.15;8.82;;;3.50;75.40;;;;;;5020965;28;20056;-70
2022/03/22 07:07:01;;;;;;;12.20;7.70;;;3.60;75.20;;;;;;5020980;28;20030;-70
2022/03/22 07:09:27;;;;;;;17.23;9.20;;;3.70;75.40;;;;;;5022610;28;20033;-70
2022/03/22 07:11:55;;;;;;;14.50;8.82;;;3.70;76.20;;;;;;5018918;28;20491;-70
2022/03/22 07:14:25;;;;;;;15.45;8.68;;;3.70;75.80;;;;;;5022033;28;20033;-70
2022/03/22 07:16:51;;;;;;;15.35;7.82;;;3.90;75.10;;;;;;5017815;28;20088;-70
2022/03/22 07:19:19;;;;;;;15.07;9.15;;;4.00;75.60;;;;;;5021880;28;20395;-70
2022/03/22 07:21:46;;;;;;;13.60;8.82;;;4.00;75.60;;;;;;5020285;28;20038;-70
2022/03/22 07:24:13;;;;;;;13.65;8.13;;;4.10;75.40;;;;;;5022287;28;20031;-70
2022/03/22 07:26:40;;;;;;;15.35;8.77;;;3.90;75.70;;;;;;5018659;28;21050;-70
2022/03/22 07:29:07;;;;;;;16.48;8.55;;;4.00;75.80;;;;;;5022078;28;21514;-69
2022/03/22 07:31:37;;;;;;;17.02;8.77;;;4.10;75.60;;;;;;5022016;28;20458;-71
2022/03/22 07:34:05;;;;;;;15.95;9.90;;;4.20;76.20;;;;;;5018078;28;20495;-71
2022/03/22 07:36:31;;;;;;;15.13;8.90;;;4.40;75.60;;;;;;5018691;28;20644;-70
2022/03/22 07:38:56;;;;;;;18.00;8.80;;;4.40;75.40;;;;;;5006417;28;20034;-70
2022/03/22 07:41:22;;;;;;;13.95;8.52;;;4.50;75.00;;;;;;5007797;28;20670;-71
2022/03/22 07:43:48;;;;;;;13.80;8.57;;;4.50;74.80;;;;;;5006298;28;20037;-71
2022/03/22 07:46:14;;;;;;;21.55;9.35;;;4.60;74.60;;;;;;5006974;28;20590;-70
2022/03/22 07:48:39;;;;;;;14.82;9.48;;;4.70;74.40;;;;;;5020650;28;20376;-70
2022/03/22 07:53:49;;;;;;;20.25;9.68;;;4.70;75.90;;;;;;5017883;28;20048;-72
2022/03/22 07:56:15;;;;;;;17.02;9.75;;;4.70;76.10;;;;;;5021181;28;20037;-71
2022/03/22 07:58:41;;;;;;;19.17;10.55;;;4.70;76.80;;;;;;5017686;28;20041;-71
2022/03/22 08:01:07;;;;;;;18.02;9.60;;;4.90;77.00;;;;;;5016649;28;20821;-70
2022/03/22 08:03:32;;;;;;;16.30;9.40;;;5.00;76.10;;;;;;5025628;28;20054;-70
2022/03/22 08:06:00;;;;;;;16.40;8.82;;;5.10;76.00;;;;;;5017915;28;20132;-71
2022/03/22 08:08:25;;;;;;;13.13;8.65;;;5.10;76.10;;;;;;5017273;28;20029;-69
2022/03/22 08:10:51;;;;;;;18.20;9.18;;;5.10;76.10;;;;;;5016514;28;20040;-70
2022/03/22 08:13:17;;;;;;;16.33;9.05;;;5.10;75.20;;;;;;5014444;28;20730;-70
2022/03/22 08:15:42;;;;;;;13.10;8.68;;;5.10;75.40;;;;;;5005344;28;20068;-70
2022/03/22 08:18:10;;;;;;;17.45;9.93;;;5.10;75.30;;;;;;5019466;28;20120;-70
2022/03/22 08:20:36;;;;;;;16.10;7.88;;;5.20;75.40;;;;;;5016570;28;20475;-71
2022/03/22 08:23:04;;;;;;;15.57;8.73;;;5.30;74.80;;;;;;5021188;28;20036;-71
2022/03/22 08:25:34;;;;;;;14.55;8.60;;;5.40;74.50;;;;;;5012300;28;20466;-70
2022/03/22 08:28:02;;;;;;;17.90;9.40;;;5.50;74.10;;;;;;5007196;28;20526;-70
2022/03/22 08:30:29;;;;;;;17.38;9.05;;;5.60;74.30;;;;;;5009699;28;20033;-71
2022/03/22 08:32:58;;;;;;;21.38;9.70;;;5.70;74.30;;;;;;5025435;28;20491;-70
2022/03/22 08:35:25;;;;;;;17.83;10.73;;;5.70;74.00;;;;;;5024889;28;20017;-73
2022/03/22 08:37:52;;;;;;;22.70;10.38;;;5.80;73.50;;;;;;5021473;28;20045;-71
2022/03/22 08:40:18;;;;;;;21.38;10.30;;;5.90;74.90;;;;;;5021045;28;20108;-72
2022/03/22 08:42:45;;;;;;;19.45;10.27;;;6.30;76.20;;;;;;5021064;28;20560;-71
2022/03/22 08:45:16;;;;;;;15.00;8.90;;;6.30;73.70;;;;;;5026036;28;20025;-71
2022/03/22 08:47:43;;;;;;;22.00;10.65;;;6.30;73.10;;;;;;5024237;28;20033;-71
2022/03/22 08:50:10;;;;;;;22.55;9.93;;;6.40;73.30;;;;;;5026720;28;20388;-71
2022/03/22 08:52:37;;;;;;;18.40;10.95;;;6.50;73.30;;;;;;5024456;28;20371;-71
2022/03/22 08:55:05;;;;;;;19.05;9.65;;;6.40;73.00;;;;;;5026832;28;20040;-71
2022/03/22 08:57:31;;;;;;;22.98;10.85;;;6.40;72.80;;;;;;5024150;28;20045;-70
2022/03/22 08:59:58;;;;;;;18.80;8.82;;;6.50;73.60;;;;;;5024833;28;20068;-73
2022/03/22 09:02:23;;;;;;;21.40;10.57;;;6.50;73.20;;;;;;5020178;28;20041;-75
2022/03/22 09:07:33;;;;;;;15.52;9.90;;;6.70;72.50;;;;;;5019197;28;20099;-73
2022/03/22 09:10:00;;;;;;;18.42;9.65;;;6.80;72.20;;;;;;5021094;28;20053;-73
2022/03/22 09:12:26;;;;;;;17.35;9.48;;;6.90;72.60;;;;;;5024058;28;20041;-73
2022/03/22 09:14:53;;;;;;;15.10;9.73;;;7.00;72.70;;;;;;5025581;28;20045;-73
2022/03/22 09:17:20;;;;;;;21.33;9.65;;;7.00;71.30;;;;;;5022811;28;20124;-73
2022/03/22 09:19:46;;;;;;;16.20;8.88;;;7.00;71.30;;;;;;5021395;28;20028;-73
2022/03/22 09:22:14;;;;;;;19.95;9.57;;;7.20;72.30;;;;;;5024995;28;20025;-74
2022/03/22 09:24:40;;;;;;;18.50;9.40;;;7.30;72.30;;;;;;5023614;28;20045;-74
2022/03/22 09:27:05;;;;;;;19.15;9.90;;;10.80;69.70;;;;;;5021394;28;20032;-78
2022/03/22 09:29:31;;;;;;;17.05;9.30;;;13.50;69.00;;;;;;5026158;28;20033;-74
2022/03/22 09:31:57;;;;;;;23.80;9.02;;;15.20;62.40;;;;;;5019710;28;20618;-75
2022/03/22 09:34:25;;;;;;;19.55;9.95;;;15.30;60.50;;;;;;5023006;28;20040;-77
2022/03/22 09:36:52;;;;;;;16.48;9.57;;;15.00;61.20;;;;;;5024214;28;20044;-76
2022/03/22 09:39:19;;;;;;;15.18;9.88;;;13.70;61.60;;;;;;5020760;28;20030;-75
2022/03/22 09:41:48;;;;;;;15.52;10.20;;;12.20;63.80;;;;;;5023409;28;20575;-76
2022/03/22 09:44:17;;;;;;;18.50;10.93;;;10.80;65.50;;;;;;5020086;28;20036;-76
2022/03/22 09:46:46;;;;;;;16.25;10.88;;;10.00;66.30;;;;;;5024742;28;20483;-78
2022/03/22 09:49:12;;;;;;;16.38;9.50;;;9.70;66.10;;;;;;5019858;28;20030;-75
2022/03/22 09:51:44;;;;;;;17.83;9.55;;;9.60;66.60;;;;;;5025112;28;20036;-77
2022/03/22 09:54:18;;;;;;;14.77;9.57;;;9.60;66.40;;;;;;5023738;28;20044;-77
2022/03/22 09:56:45;;;;;;;17.77;9.40;;;9.80;66.40;;;;;;5022503;28;20412;-76
2022/03/22 09:59:12;;;;;;;22.15;10.35;;;9.80;66.40;;;;;;5016641;28;20033;-76
2022/03/22 10:01:38;;;;;;;20.33;10.63;;;9.70;66.50;;;;;;5023764;28;20041;-77
2022/03/22 10:04:07;;;;;;;21.27;10.20;;;9.60;66.30;;;;;;5022170;28;20053;-77
2022/03/22 10:06:33;;;;;;;18.10;10.38;;;9.80;67.20;;;;;;5022838;28;20033;-77
2022/03/22 10:09:00;;;;;;;17.63;9.07;;;9.90;66.50;;;;;;5018275;28;20047;-78
2022/03/22 10:11:35;;;;;;;16.25;10.20;;;9.80;66.00;;;;;;5021227;28;20068;-76
2022/03/22 10:14:01;;;;;;;16.63;8.65;;;9.80;66.50;;;;;;5022098;28;20030;-75
2022/03/22 10:16:27;;;;;;;51.42;11.27;;;9.80;66.40;;;;;;5024371;28;20049;-74
2022/03/22 10:18:53;;;;;;;14.05;10.02;;;9.90;66.70;;;;;;5014578;28;20034;-75
2022/03/22 10:21:19;;;;;;;13.40;9.18;;;10.00;67.20;;;;;;5022371;28;20379;-75
2022/03/22 10:23:53;;;;;;;17.92;10.40;;;9.90;65.70;;;;;;5021502;28;20037;-75
2022/03/22 10:26:19;;;;;;;70.93;14.77;;;10.30;66.90;;;;;;5022723;28;20029;-76
2022/03/22 10:28:55;;;;;;;15.43;9.13;;;10.40;65.90;;;;;;5021391;28;20650;-75
2022/03/22 10:31:37;;;;;;;17.15;10.07;;;10.80;65.40;;;;;;5021978;28;20124;-76
2022/03/22 10:34:03;;;;;;;21.08;10.10;;;10.90;66.20;;;;;;5023347;28;20061;-75
2022/03/22 10:36:34;;;;;;;15.32;8.77;;;11.30;65.40;;;;;;5021420;28;20041;-76
2022/03/22 10:39:02;;;;;;;18.42;8.35;;;11.60;64.50;;;;;;5020591;28;20037;-75
2022/03/22 10:41:30;;;;;;;15.18;9.52;;;11.60;64.60;;;;;;5020875;28;20034;-75
2022/03/22 10:44:10;;;;;;;15.88;8.90;;;11.50;63.40;;;;;;5022321;28;20785;-76
2022/03/22 10:46:42;;;;;;;12.98;8.07;;;11.40;63.50;;;;;;5017645;28;20132;-75
2022/03/22 10:49:17;;;;;;;19.52;9.80;;;11.60;63.60;;;;;;5020655;28;20033;-75
2022/03/22 10:51:49;;;;;;;;;;;11.90;64.70;;;;;;5023998;28;20040;-76
2022/03/22 10:54:17;;;;;;;16.58;8.43;;;11.90;62.70;;;;;;5023531;28;19916;-76
2022/03/22 10:56:56;;;;;;;15.43;8.75;;;12.00;62.70;;;;;;5020196;28;20559;-76
2022/03/22 10:59:29;;;;;;;15.18;9.32;;;12.00;64.00;;;;;;5022028;28;20087;-75
2022/03/22 11:01:56;;;;;;;15.40;9.27;;;11.90;63.50;;;;;;5021073;28;20132;-76
2022/03/22 11:04:23;;;;;;;25.90;9.52;;;12.30;62.90;;;;;;5023480;28;20129;-78
2022/03/22 11:06:49;;;;;;;14.63;8.82;;;12.40;62.40;;;;;;5021811;28;20032;-77
2022/03/22 11:09:22;;;;;;;17.33;9.52;;;12.20;61.90;;;;;;5020670;28;20507;-75
2022/03/22 11:11:50;;;;;;;24.42;9.15;;;12.20;62.10;;;;;;5022682;28;20029;-74
2022/03/22 11:14:17;;;;;;;17.00;8.77;;;12.10;62.20;;;;;;5018282;28;20029;-75
2022/03/22 11:16:48;;;;;;;14.27;8.13;;;12.40;62.50;;;;;;5022431;28;20083;-75
2022/03/22 11:19:17;;;;;;;15.20;9.30;;;12.50;62.50;;;;;;5022505;28;20426;-76
2022/03/22 11:21:42;;;;;;;16.42;8.82;;;12.50;62.30;;;;;;5021311;28;20112;-75
2022/03/22 11:24:12;;;;;;;15.15;9.30;;;12.70;62.70;;;;;;5019549;28;20029;-75
2022/03/22 11:26:43;;;;;;;18.50;8.98;;;13.00;63.60;;;;;;5014085;28;20060;-75
2022/03/22 11:29:15;;;;;;;14.05;9.13;;;13.30;63.10;;;;;;5019749;28;20048;-75
2022/03/22 11:31:42;;;;;;;17.80;8.77;;;13.10;62.10;;;;;;5023028;28;20025;-76
2022/03/22 11:34:09;;;;;;;16.02;9.10;;;13.00;61.20;;;;;;5024978;28;20025;-75
2022/03/22 11:36:43;;;;;;;13.27;8.55;;;13.10;61.70;;;;;;5025734;28;20049;-75
2022/03/22 11:39:09;;;;;;;;;;;13.20;61.80;;;;;;5023178;28;20134;-75
2022/03/22 11:44:22;;;;;;;12.35;8.30;;;13.50;61.80;;;;;;5024941;28;20095;-76
2022/03/22 11:47:07;;;;;;;13.35;7.80;;;13.40;61.20;;;;;;5025297;28;20042;-75
2022/03/22 11:49:59;;;;;;;13.95;8.50;;;13.50;60.00;;;;;;5021097;28;20419;-76
2022/03/22 11:52:35;;;;;;;14.32;8.63;;;13.90;59.80;;;;;;5022555;28;20056;-76
2022/03/22 11:55:05;;;;;;;14.25;8.52;;;13.90;61.20;;;;;;5025230;28;20112;-75
2022/03/22 11:57:56;;;;;;;12.52;8.38;;;13.80;59.60;;;;;;5023888;28;20041;-77
2022/03/22 12:00:42;;;;;;;14.18;8.45;;;13.80;60.90;;;;;;5026243;28;20069;-75
2022/03/22 12:03:13;;;;;;;13.32;8.10;;;14.00;60.90;;;;;;5022665;28;20056;-76
2022/03/22 12:05:39;;;;;;;14.30;8.55;;;13.90;60.40;;;;;;5018918;28;20041;-74
2022/03/22 12:08:06;;;;;;;18.75;8.23;;;14.00;59.80;;;;;;5022368;28;20083;-75
2022/03/22 12:10:31;;;;;;;15.40;7.45;;;14.00;59.50;;;;;;5020078;28;20109;-76
2022/03/22 12:12:58;;;;;;;13.40;7.53;;;13.90;59.00;;;;;;5025390;28;20108;-75
2022/03/22 12:15:24;;;;;;;14.35;7.97;;;14.40;59.10;;;;;;5024834;28;20150;-75
2022/03/22 12:17:50;;;;;;;12.90;7.53;;;14.30;58.30;;;;;;5018325;28;20060;-77
2022/03/22 12:20:18;;;;;;;10.02;7.13;;;14.50;59.40;;;;;;5024007;28;20033;-75
2022/03/22 12:22:55;;;;;;;14.10;8.85;;;14.50;58.40;;;;;;5018654;28;20021;-75
2022/03/22 12:25:23;;;;;;;12.93;8.45;;;14.90;58.80;;;;;;5017709;28;20118;-76
2022/03/22 12:27:52;;;;;;;13.77;8.20;;;14.60;56.60;;;;;;5024361;28;20073;-75
2022/03/22 12:30:20;;;;;;;11.13;7.15;;;14.50;56.80;;;;;;5024914;28;20034;-76
2022/03/22 12:32:50;;;;;;;12.23;7.35;;;14.60;56.90;;;;;;5024069;28;20033;-75
2022/03/22 12:35:16;;;;;;;9.50;6.85;;;15.00;58.30;;;;;;5025832;28;20052;-76
2022/03/22 12:37:41;;;;;;;12.65;6.20;;;15.30;58.40;;;;;;5024996;28;20626;-76
2022/03/22 12:40:07;;;;;;;11.90;7.50;;;15.10;56.00;;;;;;5022872;28;20083;-75
2022/03/22 12:42:33;;;;;;;13.23;7.32;;;15.20;57.50;;;;;;5023349;28;20037;-75
2022/03/22 12:44:59;;;;;;;9.00;6.38;;;15.20;55.20;;;;;;5026468;28;20030;-76
2022/03/22 12:47:25;;;;;;;12.73;6.40;;;15.20;55.20;;;;;;5018452;28;20037;-75
2022/03/22 12:49:51;;;;;;;10.80;6.38;;;15.20;55.20;;;;;;5022651;28;20069;-76
2022/03/22 12:52:17;;;;;;;10.32;6.07;;;15.40;55.70;;;;;;5025889;28;20040;-76
2022/03/22 12:54:44;;;;;;;10.18;6.25;;;15.30;54.10;;;;;;5024618;28;20026;-75
2022/03/22 12:57:15;;;;;;;14.68;5.93;;;15.60;55.80;;;;;;5024401;28;20446;-76
2022/03/22 12:59:41;;;;;;;10.25;6.35;;;15.90;54.70;;;;;;5025131;28;20048;-76
2022/03/22 13:02:09;;;;;;;8.05;5.50;;;16.00;54.60;;;;;;5025471;28;20060;-75
2022/03/22 13:04:46;;;;;;;8.93;5.30;;;15.80;52.50;;;;;;5021136;28;20629;-76
2022/03/22 13:07:21;;;;;;;10.85;5.63;;;15.80;53.00;;;;;;5022988;28;20036;-76
2022/03/22 13:12:34;;;;;;;8.80;5.45;;;15.90;52.60;;;;;;5021932;28;20056;-75
2022/03/22 13:15:12;;;;;;;12.18;5.75;;;16.00;52.40;;;;;;5024493;28;20033;-77
2022/03/22 13:17:43;;;;;;;17.55;6.18;;;15.90;52.90;;;;;;5023913;28;20037;-75